createdAt,value
2018-09-01T00:01:08.667Z,26.03
2018-09-01T00:03:39.957Z,25.13
2018-09-01T00:06:09.191Z,25.50
2018-09-01T00:08:38.375Z,25.77
2018-09-01T00:11:08.002Z,28.47
2018-09-01T00:13:37.999Z,25.40
2018-09-01T00:16:07.507Z,25.57
2018-09-01T00:18:36.679Z,26.70
2018-09-01T00:21:05.870Z,29.00
2018-09-01T00:23:35.137Z,25.87
2018-09-01T00:26:04.321Z,26.87
2018-09-01T00:28:33.561Z,27.33
2018-09-01T00:31:02.769Z,25.30
2018-09-01T00:33:31.970Z,31.30
2018-09-01T00:36:01.136Z,26.37
2018-09-01T00:38:35.574Z,29.23
2018-09-01T00:41:04.740Z,25.83
2018-09-01T00:43:33.922Z,25.60
2018-09-01T00:46:03.091Z,24.73
2018-09-01T00:48:33.971Z,26.67
2018-09-01T00:51:03.115Z,26.33
2018-09-01T00:53:32.259Z,32.23
2018-09-01T00:56:01.460Z,32.80
2018-09-01T00:58:30.670Z,31.10
2018-09-01T01:01:00.160Z,26.90
2018-09-01T01:03:30.179Z,29.70
2018-09-01T01:10:59.573Z,25.80
2018-09-01T01:13:30.645Z,24.93
2018-09-01T01:16:00.429Z,31.87
2018-09-01T01:18:30.421Z,30.62
2018-09-01T01:21:00.372Z,28.60
2018-09-01T01:23:30.518Z,25.80
2018-09-01T01:31:07.582Z,23.93
2018-09-01T01:33:36.833Z,24.30
2018-09-01T01:36:06.109Z,28.97
2018-09-01T01:38:35.249Z,27.00
2018-09-01T01:41:05.006Z,26.65
2018-09-01T01:43:34.968Z,25.00
2018-09-01T01:46:05.820Z,25.32
2018-09-01T01:48:35.308Z,24.77
2018-09-01T01:51:06.237Z,24.85
2018-09-01T01:53:35.438Z,23.23
2018-09-01T01:56:05.527Z,25.75
2018-09-01T01:58:35.767Z,22.97
2018-09-01T02:01:05.021Z,25.13
2018-09-01T02:03:35.065Z,22.85
2018-09-01T02:53:21.804Z,23.30
2018-09-01T02:55:51.649Z,21.05
2018-09-01T02:58:20.907Z,20.20
2018-09-01T03:00:55.639Z,18.27
2018-09-01T03:03:24.817Z,18.82
2018-09-01T03:05:54.032Z,18.87
2018-09-01T03:08:23.369Z,21.67
2018-09-01T03:10:52.549Z,18.40
2018-09-01T03:13:21.681Z,17.83
2018-09-01T03:15:50.772Z,24.53
2018-09-01T03:18:19.870Z,22.53
2018-09-01T03:20:48.996Z,18.42
2018-09-01T03:23:18.082Z,22.07
2018-09-01T03:25:47.197Z,21.33
2018-09-01T03:28:16.246Z,19.60
2018-09-01T03:30:45.374Z,20.23
2018-09-01T03:33:14.511Z,21.48
2018-09-01T03:35:43.626Z,20.77
2018-09-01T03:38:12.685Z,16.42
2018-09-01T03:40:41.722Z,19.67
2018-09-01T03:43:10.823Z,17.00
2018-09-01T03:45:39.898Z,17.03
2018-09-01T03:48:09.073Z,17.00
2018-09-01T03:50:38.167Z,14.50
2018-09-01T03:53:07.279Z,16.20
2018-09-01T03:55:36.758Z,19.75
2018-09-01T03:58:06.726Z,19.07
2018-09-01T04:00:36.850Z,19.40
2018-09-01T04:03:06.682Z,16.50
2018-09-01T04:05:36.894Z,15.13
2018-09-01T04:08:06.738Z,16.00
2018-09-01T04:10:36.893Z,14.98
2018-09-01T04:13:06.758Z,22.37
2018-09-01T04:15:36.866Z,18.92
2018-09-01T04:18:06.843Z,17.95
2018-09-01T04:20:36.700Z,18.40
2018-09-01T04:23:06.835Z,15.50
2018-09-01T04:25:36.746Z,17.03
2018-09-01T04:28:06.899Z,19.75
2018-09-01T04:30:36.764Z,18.27
2018-09-01T04:33:07.086Z,17.02
2018-09-01T04:35:36.923Z,16.20
2018-09-01T04:38:06.937Z,16.80
2018-09-01T04:40:36.909Z,16.40
2018-09-01T04:43:07.386Z,16.13
2018-09-01T04:45:36.923Z,14.33
2018-09-01T04:48:07.051Z,15.88
2018-09-01T04:50:36.983Z,15.58
2018-09-01T04:53:07.109Z,14.85
2018-09-01T04:55:37.093Z,16.35
2018-09-01T04:58:06.908Z,15.47
2018-09-01T05:00:37.067Z,16.75
2018-09-01T05:03:06.993Z,17.03
2018-09-01T05:05:37.105Z,17.45
2018-09-01T05:08:06.979Z,20.83
2018-09-01T05:10:37.101Z,14.18
2018-09-01T05:13:06.975Z,13.63
2018-09-01T05:15:37.121Z,15.53
2018-09-01T05:18:07.107Z,16.30
2018-09-01T05:20:37.142Z,17.77
2018-09-01T05:23:06.986Z,15.48
2018-09-01T05:25:36.251Z,13.43
2018-09-01T05:28:05.415Z,13.53
2018-09-01T05:30:34.507Z,13.43
2018-09-01T05:33:03.690Z,18.43
2018-09-01T05:35:32.807Z,14.23
2018-09-01T05:38:01.906Z,17.35
2018-09-01T05:40:31.029Z,16.00
2018-09-01T05:43:00.127Z,13.70
2018-09-01T05:45:29.252Z,9.73
2018-09-01T05:47:58.340Z,13.23
2018-09-01T05:50:27.494Z,13.50
2018-09-01T05:52:56.628Z,15.50
2018-09-01T05:55:25.785Z,12.10
2018-09-01T05:57:55.120Z,12.17
2018-09-01T06:00:24.358Z,13.83
2018-09-01T06:02:54.060Z,11.10
2018-09-01T06:05:23.177Z,10.57
2018-09-01T06:07:52.274Z,14.23
2018-09-01T06:10:21.365Z,14.33
2018-09-01T06:12:50.458Z,12.07
2018-09-01T06:15:19.561Z,12.90
2018-09-01T06:17:48.723Z,16.00
2018-09-01T06:20:17.805Z,12.40
2018-09-01T06:22:46.909Z,11.17
2018-09-01T06:25:16.037Z,12.35
2018-09-01T06:27:49.558Z,14.87
2018-09-01T06:30:23.838Z,13.38
2018-09-01T06:32:52.952Z,9.83
2018-09-01T06:35:22.049Z,11.20
2018-09-01T06:37:51.325Z,15.05
2018-09-01T06:40:20.525Z,11.97
2018-09-01T06:42:49.627Z,14.20
2018-09-01T06:45:18.754Z,9.43
2018-09-01T06:47:47.813Z,12.30
2018-09-01T06:50:16.942Z,21.15
2018-09-01T06:52:46.023Z,11.30
2018-09-01T06:55:15.168Z,12.15
2018-09-01T06:57:44.223Z,15.30
2018-09-01T07:00:13.414Z,11.18
2018-09-01T07:02:42.657Z,12.53
2018-09-01T07:05:11.780Z,12.23
2018-09-01T07:07:40.908Z,11.10
2018-09-01T07:10:10.103Z,10.87
2018-09-01T07:12:39.259Z,10.83
2018-09-01T07:15:08.380Z,7.63
2018-09-01T07:17:37.626Z,11.83
2018-09-01T07:20:07.645Z,13.70
2018-09-01T07:22:37.674Z,12.50
2018-09-01T07:25:07.822Z,12.50
2018-09-01T07:27:37.724Z,15.77
2018-09-01T07:30:09.268Z,11.90
2018-09-01T07:32:38.350Z,10.67
2018-09-01T07:35:07.887Z,12.05
2018-09-01T07:37:37.778Z,16.12
2018-09-01T07:40:07.890Z,12.25
2018-09-01T07:42:37.795Z,12.17
2018-09-01T07:45:08.010Z,9.65
2018-09-01T07:47:37.922Z,12.95
2018-09-01T07:50:07.915Z,13.30
2018-09-01T07:52:37.940Z,12.05
2018-09-01T07:55:07.962Z,10.75
2018-09-01T07:57:37.974Z,7.97
2018-09-01T08:00:07.860Z,11.13
2018-09-01T08:02:37.879Z,11.47
2018-09-01T08:05:08.133Z,12.60
2018-09-01T08:07:38.096Z,15.48
2018-09-01T08:10:08.498Z,12.23
2018-09-01T08:12:38.010Z,13.27
2018-09-01T08:15:08.343Z,11.63
2018-09-01T08:17:38.026Z,12.47
2018-09-01T08:25:02.232Z,15.03
2018-09-01T08:27:31.420Z,8.60
2018-09-01T08:30:02.662Z,10.00
2018-09-01T08:32:31.898Z,11.10
2018-09-01T08:35:01.444Z,12.00
2018-09-01T08:37:32.652Z,9.57
2018-09-01T08:40:01.859Z,10.37
2018-09-01T08:42:31.116Z,14.63
2018-09-01T08:45:00.591Z,10.57
2018-09-01T08:47:29.766Z,8.90
2018-09-01T08:49:58.916Z,8.60
2018-09-01T08:52:28.820Z,14.37
2018-09-01T08:54:58.414Z,6.37
2018-09-01T08:57:27.741Z,10.50
2018-09-01T08:59:58.232Z,11.90
2018-09-01T09:02:27.538Z,11.77
2018-09-01T09:04:57.080Z,9.00
2018-09-01T09:07:26.223Z,9.68
2018-09-01T09:09:55.871Z,8.83
2018-09-01T09:12:25.082Z,6.40
2018-09-01T09:14:54.759Z,9.70
2018-09-01T09:17:27.688Z,15.07
2018-09-01T09:19:57.312Z,8.97
2018-09-01T09:22:26.493Z,7.23
2018-09-01T09:24:56.053Z,7.80
2018-09-01T09:27:25.294Z,9.43
2018-09-01T09:29:54.789Z,10.17
2018-09-01T09:32:24.121Z,8.50
2018-09-01T09:34:58.190Z,11.00
2018-09-01T09:37:27.434Z,9.63
2018-09-01T09:39:57.383Z,9.93
2018-09-01T09:42:26.704Z,13.03
2018-09-01T09:44:56.437Z,13.98
2018-09-01T09:47:25.698Z,9.33
2018-09-01T09:49:55.286Z,9.30
2018-09-01T09:52:24.740Z,12.10
2018-09-01T09:54:54.412Z,6.43
2018-09-01T09:57:23.716Z,12.00
2018-09-01T09:59:53.756Z,11.27
2018-09-01T10:02:23.023Z,9.75
2018-09-01T10:04:53.042Z,9.70
2018-09-01T10:07:22.377Z,6.58
2018-09-01T10:09:52.076Z,6.70
2018-09-01T10:12:23.172Z,6.27
2018-09-01T10:14:52.845Z,10.80
2018-09-01T10:17:22.009Z,8.55
2018-09-01T10:19:51.650Z,9.93
2018-09-01T10:22:21.082Z,5.40
2018-09-01T10:24:50.742Z,7.80
2018-09-01T10:27:19.959Z,8.13
2018-09-01T10:29:49.645Z,4.92
2018-09-01T10:32:18.873Z,10.38
2018-09-01T10:34:48.434Z,6.90
2018-09-01T10:37:17.594Z,9.17
2018-09-01T10:39:47.187Z,12.23
2018-09-01T10:42:19.136Z,6.67
2018-09-01T10:44:48.666Z,10.38
2018-09-01T10:47:17.987Z,8.13
2018-09-01T10:49:47.640Z,7.73
2018-09-01T10:52:18.374Z,8.67
2018-09-01T10:54:48.057Z,9.10
2018-09-01T10:57:18.021Z,7.42
2018-09-01T10:59:47.582Z,6.87
2018-09-01T11:02:16.801Z,5.77
2018-09-01T11:04:46.253Z,6.25
2018-09-01T11:07:15.612Z,6.50
2018-09-01T11:09:45.271Z,11.22
2018-09-01T11:12:16.266Z,7.75
2018-09-01T11:14:45.801Z,6.30
2018-09-01T11:17:15.029Z,6.75
2018-09-01T11:19:45.507Z,9.17
2018-09-01T11:22:14.949Z,11.40
2018-09-01T11:24:44.549Z,6.45
2018-09-01T11:27:13.791Z,6.03
2018-09-01T11:29:43.489Z,8.53
2018-09-01T11:32:16.280Z,10.53
2018-09-01T11:34:45.899Z,5.25
2018-09-01T11:37:15.262Z,8.63
2018-09-01T11:39:45.492Z,9.10
2018-09-01T11:42:14.729Z,9.40
2018-09-01T11:44:44.282Z,10.43
2018-09-01T11:47:13.466Z,7.70
2018-09-01T11:49:43.783Z,5.85
2018-09-01T11:52:13.003Z,8.30
2018-09-01T11:54:42.596Z,6.67
2018-09-01T11:57:11.972Z,8.37
2018-09-01T11:59:41.288Z,8.93
2018-09-01T12:02:11.346Z,9.50
2018-09-01T12:04:40.497Z,6.70
2018-09-01T12:07:09.780Z,8.63
2018-09-01T12:09:40.732Z,10.45
2018-09-01T12:12:09.993Z,7.30
2018-09-01T12:14:39.634Z,7.80
2018-09-01T12:17:09.597Z,10.28
2018-09-01T12:19:39.629Z,10.17
2018-09-01T12:22:09.749Z,6.30
2018-09-01T12:24:39.810Z,6.20
2018-09-01T12:27:11.402Z,7.83
2018-09-01T12:29:40.657Z,8.43
2018-09-01T12:32:11.844Z,9.23
2018-09-01T12:34:41.068Z,7.10
2018-09-01T12:37:10.300Z,10.40
2018-09-01T12:39:41.853Z,12.03
2018-09-01T12:42:12.257Z,18.23
2018-09-01T12:44:41.405Z,8.70
2018-09-01T12:47:10.622Z,8.70
2018-09-01T12:49:39.946Z,7.90
2018-09-01T12:52:10.003Z,10.55
2018-09-01T12:54:39.841Z,10.20
2018-09-01T12:57:12.461Z,13.00
2018-09-01T12:59:41.809Z,9.97
2018-09-01T13:02:13.076Z,9.53
2018-09-01T13:04:42.317Z,7.30
2018-09-01T13:07:11.893Z,13.00
2018-09-01T13:09:41.885Z,10.90
2018-09-01T13:12:11.188Z,9.43
2018-09-01T13:14:40.741Z,7.93
2018-09-01T13:17:10.728Z,12.23
2018-09-01T13:19:40.183Z,11.17
2018-09-01T13:22:10.018Z,12.80
2018-09-01T13:24:40.096Z,8.93
2018-09-01T13:27:10.138Z,9.10
2018-09-01T13:29:41.241Z,15.40
2018-09-01T13:32:11.270Z,10.28
2018-09-01T13:34:40.524Z,10.37
2018-09-01T13:37:10.129Z,8.60
2018-09-01T13:39:40.195Z,11.08
2018-09-01T13:42:10.187Z,12.03
2018-09-01T13:44:40.216Z,13.60
2018-09-01T13:47:10.208Z,9.20
2018-09-01T13:49:40.208Z,8.50
2018-09-01T13:57:09.446Z,14.00
2018-09-01T13:59:38.631Z,9.40
2018-09-01T14:02:08.128Z,12.10
2018-09-01T14:04:37.461Z,8.33
2018-09-01T14:07:07.051Z,9.83
2018-09-01T14:09:36.322Z,10.93
2018-09-01T14:12:05.710Z,10.60
2018-09-01T14:14:35.148Z,11.47
2018-09-01T14:17:04.223Z,7.90
2018-09-01T14:19:33.450Z,10.53
2018-09-01T14:22:02.694Z,8.23
2018-09-01T14:24:31.864Z,10.40
2018-09-01T14:27:01.074Z,13.13
2018-09-01T14:29:30.295Z,8.67
2018-09-01T14:31:59.502Z,10.47
2018-09-01T14:34:28.734Z,8.60
2018-09-01T14:36:58.084Z,8.70
2018-09-01T14:39:27.245Z,9.60
2018-09-01T14:41:57.162Z,10.47
2018-09-01T14:44:26.340Z,10.87
2018-09-01T14:46:55.948Z,7.40
2018-09-01T14:49:25.147Z,8.85
2018-09-01T14:51:54.677Z,11.73
2018-09-01T14:54:23.904Z,13.00
2018-09-01T14:56:53.584Z,8.57
2018-09-01T14:59:22.835Z,9.85
2018-09-01T15:01:52.368Z,6.53
2018-09-01T15:04:21.647Z,8.87
2018-09-01T15:06:51.266Z,10.10
2018-09-01T15:09:20.485Z,9.33
2018-09-01T15:11:50.189Z,9.10
2018-09-01T15:14:19.543Z,9.20
2018-09-01T15:16:49.120Z,9.73
2018-09-01T15:19:18.396Z,6.75
2018-09-01T15:21:47.957Z,11.30
2018-09-01T15:24:17.208Z,8.98
2018-09-01T15:26:46.915Z,10.38
2018-09-01T15:29:16.168Z,12.13
2018-09-01T15:31:45.684Z,9.13
2018-09-01T15:34:14.917Z,11.73
2018-09-01T15:36:44.458Z,13.53
2018-09-01T15:39:13.665Z,9.90
2018-09-01T15:41:42.911Z,16.10
2018-09-01T15:44:13.228Z,11.50
2018-09-01T15:46:42.500Z,12.20
2018-09-01T15:49:11.711Z,13.53
2018-09-01T15:51:42.704Z,14.85
2018-09-01T15:54:11.909Z,13.93
2018-09-01T15:56:42.643Z,15.32
2018-09-01T15:59:12.036Z,12.00
2018-09-01T16:01:41.523Z,10.10
2018-09-01T16:09:20.991Z,10.80
2018-09-01T16:11:50.584Z,10.08
2018-09-01T16:14:19.808Z,8.50
2018-09-01T16:16:49.449Z,10.93
2018-09-01T16:19:18.696Z,11.50
2018-09-01T16:21:48.027Z,11.50
2018-09-01T16:24:17.329Z,14.23
2018-09-01T16:26:46.909Z,11.35
2018-09-01T16:29:18.697Z,6.23
2018-09-01T16:31:48.369Z,12.33
2018-09-01T16:34:17.692Z,14.50
2018-09-01T16:36:47.314Z,10.32
2018-09-01T16:39:17.522Z,15.23
2018-09-01T16:41:48.125Z,13.90
2018-09-01T16:44:18.316Z,12.33
2018-09-01T16:46:48.966Z,12.28
2018-09-01T16:49:19.274Z,6.03
2018-09-01T16:51:50.014Z,9.18
2018-09-01T16:54:19.373Z,9.47
2018-09-01T16:56:49.749Z,14.37
2018-09-01T16:59:20.943Z,8.30
2018-09-01T17:01:50.581Z,6.92
2018-09-01T17:04:22.826Z,11.30
2018-09-01T17:06:55.960Z,9.80
2018-09-01T17:09:25.190Z,8.90
2018-09-01T17:11:57.240Z,12.53
2018-09-01T17:14:27.285Z,9.33
2018-09-01T17:16:57.053Z,7.53
2018-09-01T17:19:26.328Z,8.80
2018-09-01T17:21:57.594Z,8.73
2018-09-01T17:24:27.270Z,7.67
2018-09-01T17:26:56.860Z,8.43
2018-09-01T17:29:26.123Z,9.60
2018-09-01T17:31:55.733Z,12.27
2018-09-01T17:34:25.788Z,8.20
2018-09-01T17:36:55.118Z,6.72
2018-09-01T17:39:24.415Z,15.53
2018-09-01T17:41:54.030Z,13.20
2018-09-01T17:44:23.325Z,10.15
2018-09-01T17:46:52.578Z,7.35
2018-09-01T17:49:21.948Z,12.40
2018-09-01T17:51:53.313Z,11.67
2018-09-01T17:54:23.318Z,7.53
2018-09-01T17:56:54.907Z,6.87
2018-09-01T17:59:24.192Z,7.90
2018-09-01T18:01:55.686Z,10.43
2018-09-01T18:04:25.055Z,11.83
2018-09-01T18:06:54.619Z,7.85
2018-09-01T18:09:23.946Z,10.80
2018-09-01T18:11:53.545Z,11.12
2018-09-01T18:14:22.998Z,7.37
2018-09-01T18:16:52.557Z,11.60
2018-09-01T18:19:22.076Z,14.03
2018-09-01T18:21:52.064Z,10.48
2018-09-01T18:24:21.374Z,12.40
2018-09-01T18:26:50.664Z,14.97
2018-09-01T18:29:19.952Z,14.20
2018-09-01T18:31:49.581Z,11.83
2018-09-01T18:34:19.696Z,9.90
2018-09-01T18:36:49.162Z,8.50
2018-09-01T18:39:18.588Z,8.33
2018-09-01T18:41:48.357Z,11.73
2018-09-01T18:44:17.713Z,10.40
2018-09-01T18:46:47.817Z,13.75
2018-09-01T18:49:17.263Z,9.43
2018-09-01T18:51:47.168Z,8.27
2018-09-01T18:54:16.642Z,7.60
2018-09-01T18:56:46.305Z,6.00
2018-09-01T18:59:15.736Z,14.40
2018-09-01T19:01:45.446Z,12.30
2018-09-01T19:04:17.570Z,14.87
2018-09-01T19:06:47.230Z,8.70
2018-09-01T19:09:16.600Z,9.27
2018-09-01T19:11:46.781Z,11.90
2018-09-01T19:14:16.623Z,7.77
2018-09-01T19:16:46.420Z,8.00
2018-09-01T19:19:16.166Z,8.37
2018-09-01T19:21:48.244Z,10.87
2018-09-01T19:24:17.837Z,8.57
2018-09-01T19:26:47.765Z,9.70
2018-09-01T19:29:19.469Z,7.87
2018-09-01T19:31:49.991Z,12.37
2018-09-01T19:34:19.729Z,17.17
2018-09-01T19:36:49.534Z,11.90
2018-09-01T19:39:19.366Z,12.10
2018-09-01T19:41:48.871Z,10.58
2018-09-01T19:44:19.244Z,13.63
2018-09-01T19:46:49.323Z,11.63
2018-09-01T19:49:19.011Z,10.54
2018-09-01T19:51:49.181Z,10.80
2018-09-01T19:54:18.848Z,13.08
2018-09-01T19:56:48.892Z,10.40
2018-09-01T19:59:20.409Z,11.00
2018-09-01T20:01:52.212Z,10.57
2018-09-01T20:04:25.550Z,10.83
2018-09-01T20:06:55.308Z,11.20
2018-09-01T20:09:24.839Z,13.60
2018-09-01T20:11:55.312Z,13.22
2018-09-01T20:14:25.101Z,15.57
2018-09-01T20:16:56.772Z,9.40
2018-09-01T20:19:26.439Z,11.53
2018-09-01T20:21:56.561Z,10.97
2018-09-01T20:24:26.075Z,10.60
2018-09-01T20:26:56.018Z,13.65
2018-09-01T20:29:27.419Z,7.70
2018-09-01T20:31:57.171Z,8.90
2018-09-01T20:34:26.667Z,9.87
2018-09-01T20:36:56.445Z,10.03
2018-09-01T20:39:25.938Z,13.80
2018-09-01T20:41:55.584Z,17.35
2018-09-01T20:44:24.917Z,12.03
2018-09-01T20:46:54.574Z,10.10
2018-09-01T20:49:23.976Z,9.30
2018-09-01T20:51:53.648Z,23.00
2018-09-01T20:54:23.072Z,12.07
2018-09-01T20:56:53.587Z,11.08
2018-09-01T20:59:22.893Z,12.93
2018-09-01T21:01:52.576Z,11.63
2018-09-01T21:04:21.869Z,11.17
2018-09-01T21:06:51.575Z,12.60
2018-09-01T21:09:20.781Z,10.32
2018-09-01T21:11:50.404Z,15.30
2018-09-01T21:14:19.738Z,11.33
2018-09-01T21:16:49.459Z,8.43
2018-09-01T21:19:18.717Z,9.78
2018-09-01T21:21:48.784Z,11.00
2018-09-01T21:24:18.118Z,13.57
2018-09-01T21:26:47.751Z,11.47
2018-09-01T21:29:16.992Z,13.27
2018-09-01T21:31:46.561Z,13.00
2018-09-01T21:34:15.846Z,12.07
2018-09-01T21:36:46.947Z,12.07
2018-09-01T21:39:16.990Z,12.07
2018-09-01T21:41:48.335Z,12.07
2018-09-01T21:44:19.231Z,11.23
2018-09-01T21:46:48.776Z,12.35
2018-09-01T21:49:18.001Z,8.77
2018-09-01T21:51:47.601Z,12.73
2018-09-01T21:54:16.802Z,12.13
2018-09-01T21:56:46.451Z,8.83
2018-09-01T21:59:15.667Z,14.00
2018-09-01T22:01:49.342Z,8.47
2018-09-01T22:04:18.575Z,11.33
2018-09-01T22:06:48.325Z,12.10
2018-09-01T22:09:17.590Z,10.10
2018-09-01T22:11:48.651Z,11.33
2018-09-01T22:14:17.915Z,11.68
2018-09-01T22:16:47.480Z,12.95
2018-09-01T22:19:16.723Z,12.40
2018-09-01T22:21:46.269Z,12.07
2018-09-01T22:24:17.418Z,11.70
2018-09-01T22:26:47.065Z,17.73
2018-09-01T22:29:16.999Z,13.23
2018-09-01T22:31:46.667Z,12.07
2018-09-01T22:34:15.948Z,11.10
2018-09-01T22:36:46.192Z,12.60
2018-09-01T22:39:15.424Z,13.77
2018-09-01T22:41:44.660Z,11.93
2018-09-01T22:44:15.740Z,12.24
2018-09-01T22:46:45.763Z,10.53
2018-09-01T22:49:15.269Z,13.10
2018-09-01T22:51:45.245Z,17.20
2018-09-01T22:54:15.161Z,15.18
2018-09-01T22:56:48.833Z,18.65
2018-09-01T22:59:18.127Z,13.63
2018-09-01T23:01:49.376Z,14.60
2018-09-01T23:04:18.605Z,12.10
2018-09-01T23:06:49.764Z,16.80
2018-09-01T23:09:18.975Z,15.70
2018-09-01T23:11:49.556Z,10.67
2018-09-01T23:14:18.773Z,13.03
2018-09-01T23:16:48.475Z,12.27
2018-09-01T23:19:17.829Z,12.40
2018-09-01T23:21:49.099Z,14.77
2018-09-01T23:24:18.319Z,13.53
2018-09-01T23:26:47.883Z,14.50
2018-09-01T23:29:17.148Z,11.80
2018-09-01T23:31:46.605Z,12.27
2018-09-01T23:34:15.812Z,13.60
2018-09-01T23:36:45.121Z,14.23
2018-09-01T23:39:15.141Z,13.48
2018-09-01T23:41:45.215Z,13.80
